sensor_id;sensor_type;location;lat;lon;timestamp;temperature;humidity
67870;DHT22;54673;52.262;6.830;2023-02-21T00:02:40;16.30;57.00
67870;DHT22;54673;52.262;6.830;2023-02-21T00:05:24;16.30;57.00
67870;DHT22;54673;52.262;6.830;2023-02-21T00:08:09;16.30;57.10
67870;DHT22;54673;52.262;6.830;2023-02-21T00:10:53;16.20;57.10
67870;DHT22;54673;52.262;6.830;2023-02-21T00:13:37;16.30;57.20
67870;DHT22;54673;52.262;6.830;2023-02-21T00:16:22;16.20;57.20
67870;DHT22;54673;52.262;6.830;2023-02-21T00:19:07;16.20;57.20
67870;DHT22;54673;52.262;6.830;2023-02-21T00:21:51;16.20;57.10
67870;DHT22;54673;52.262;6.830;2023-02-21T00:24:35;16.20;57.20
67870;DHT22;54673;52.262;6.830;2023-02-21T00:27:20;16.20;57.20
67870;DHT22;54673;52.262;6.830;2023-02-21T00:30:05;16.20;57.20
67870;DHT22;54673;52.262;6.830;2023-02-21T00:32:50;16.20;57.20
67870;DHT22;54673;52.262;6.830;2023-02-21T00:35:34;16.20;57.20
67870;DHT22;54673;52.262;6.830;2023-02-21T00:38:19;16.20;57.20
67870;DHT22;54673;52.262;6.830;2023-02-21T00:41:03;16.20;57.20
67870;DHT22;54673;52.262;6.830;2023-02-21T00:43:47;16.10;57.20
67870;DHT22;54673;52.262;6.830;2023-02-21T00:46:31;16.10;57.20
67870;DHT22;54673;52.262;6.830;2023-02-21T00:49:15;16.10;57.20
67870;DHT22;54673;52.262;6.830;2023-02-21T00:51:59;16.10;57.20
67870;DHT22;54673;52.262;6.830;2023-02-21T00:54:44;16.10;57.20
67870;DHT22;54673;52.262;6.830;2023-02-21T00:57:28;16.10;57.20
67870;DHT22;54673;52.262;6.830;2023-02-21T01:00:18;16.20;57.30
67870;DHT22;54673;52.262;6.830;2023-02-21T01:03:03;16.10;57.30
67870;DHT22;54673;52.262;6.830;2023-02-21T01:05:47;16.10;57.30
67870;DHT22;54673;52.262;6.830;2023-02-21T01:08:31;16.10;57.50
67870;DHT22;54673;52.262;6.830;2023-02-21T01:11:20;16.10;57.30
67870;DHT22;54673;52.262;6.830;2023-02-21T01:14:05;16.10;57.40
67870;DHT22;54673;52.262;6.830;2023-02-21T01:16:50;16.10;57.50
67870;DHT22;54673;52.262;6.830;2023-02-21T01:19:34;16.00;57.40
67870;DHT22;54673;52.262;6.830;2023-02-21T01:22:19;16.10;57.40
67870;DHT22;54673;52.262;6.830;2023-02-21T01:25:04;16.00;57.30
67870;DHT22;54673;52.262;6.830;2023-02-21T01:27:48;16.10;57.40
67870;DHT22;54673;52.262;6.830;2023-02-21T01:30:32;16.00;57.30
67870;DHT22;54673;52.262;6.830;2023-02-21T01:33:16;16.00;57.30
67870;DHT22;54673;52.262;6.830;2023-02-21T01:36:00;16.00;57.40
67870;DHT22;54673;52.262;6.830;2023-02-21T01:38:44;16.00;57.40
67870;DHT22;54673;52.262;6.830;2023-02-21T01:41:28;16.00;57.50
67870;DHT22;54673;52.262;6.830;2023-02-21T01:47:16;15.90;57.40
67870;DHT22;54673;52.262;6.830;2023-02-21T01:50:03;16.00;57.50
67870;DHT22;54673;52.262;6.830;2023-02-21T01:52:48;16.00;57.50
67870;DHT22;54673;52.262;6.830;2023-02-21T01:55:35;16.00;57.50
67870;DHT22;54673;52.262;6.830;2023-02-21T01:58:22;15.90;57.50
67870;DHT22;54673;52.262;6.830;2023-02-21T02:01:09;15.90;57.60
67870;DHT22;54673;52.262;6.830;2023-02-21T02:03:56;15.90;57.60
67870;DHT22;54673;52.262;6.830;2023-02-21T02:06:40;15.90;57.60
67870;DHT22;54673;52.262;6.830;2023-02-21T02:09:24;15.90;57.60
67870;DHT22;54673;52.262;6.830;2023-02-21T02:29:16;15.90;57.60
67870;DHT22;54673;52.262;6.830;2023-02-21T02:34:58;15.90;57.50
67870;DHT22;54673;52.262;6.830;2023-02-21T02:40:27;15.90;57.70
67870;DHT22;54673;52.262;6.830;2023-02-21T02:43:16;15.90;57.70
67870;DHT22;54673;52.262;6.830;2023-02-21T02:50:48;15.90;57.80
67870;DHT22;54673;52.262;6.830;2023-02-21T02:53:18;15.80;57.80
67870;DHT22;54673;52.262;6.830;2023-02-21T02:55:51;15.80;57.70
67870;DHT22;54673;52.262;6.830;2023-02-21T02:58:19;15.90;57.80
67870;DHT22;54673;52.262;6.830;2023-02-21T03:03:55;15.80;57.70
67870;DHT22;54673;52.262;6.830;2023-02-21T03:15:44;15.80;57.90
67870;DHT22;54673;52.262;6.830;2023-02-21T03:18:43;15.80;57.80
67870;DHT22;54673;52.262;6.830;2023-02-21T03:21:22;15.80;57.90
67870;DHT22;54673;52.262;6.830;2023-02-21T03:23:51;15.80;58.00
67870;DHT22;54673;52.262;6.830;2023-02-21T03:26:19;15.80;57.90
67870;DHT22;54673;52.262;6.830;2023-02-21T03:28:45;15.80;57.90
67870;DHT22;54673;52.262;6.830;2023-02-21T03:31:13;15.70;57.90
67870;DHT22;54673;52.262;6.830;2023-02-21T03:33:40;15.80;57.90
67870;DHT22;54673;52.262;6.830;2023-02-21T03:36:07;15.80;57.90
67870;DHT22;54673;52.262;6.830;2023-02-21T03:38:33;15.80;57.90
67870;DHT22;54673;52.262;6.830;2023-02-21T03:40:59;15.80;57.90
67870;DHT22;54673;52.262;6.830;2023-02-21T03:43:24;15.80;57.90
67870;DHT22;54673;52.262;6.830;2023-02-21T03:45:50;15.70;57.90
67870;DHT22;54673;52.262;6.830;2023-02-21T03:48:16;15.80;58.00
67870;DHT22;54673;52.262;6.830;2023-02-21T03:50:41;15.80;58.00
67870;DHT22;54673;52.262;6.830;2023-02-21T03:53:08;15.70;57.90
67870;DHT22;54673;52.262;6.830;2023-02-21T03:55:34;15.70;57.90
67870;DHT22;54673;52.262;6.830;2023-02-21T03:57:59;15.80;58.00
67870;DHT22;54673;52.262;6.830;2023-02-21T04:00:25;15.70;57.90
67870;DHT22;54673;52.262;6.830;2023-02-21T04:02:50;15.80;58.00
67870;DHT22;54673;52.262;6.830;2023-02-21T04:05:16;15.80;58.10
67870;DHT22;54673;52.262;6.830;2023-02-21T04:07:42;15.70;58.00
67870;DHT22;54673;52.262;6.830;2023-02-21T04:10:07;15.80;58.10
67870;DHT22;54673;52.262;6.830;2023-02-21T04:12:33;15.70;58.00
67870;DHT22;54673;52.262;6.830;2023-02-21T04:14:58;15.70;58.10
67870;DHT22;54673;52.262;6.830;2023-02-21T04:17:24;15.70;58.20
67870;DHT22;54673;52.262;6.830;2023-02-21T04:19:50;15.70;58.10
67870;DHT22;54673;52.262;6.830;2023-02-21T04:22:16;15.70;58.20
67870;DHT22;54673;52.262;6.830;2023-02-21T04:24:42;15.70;58.20
67870;DHT22;54673;52.262;6.830;2023-02-21T04:27:07;15.70;58.20
67870;DHT22;54673;52.262;6.830;2023-02-21T04:29:33;15.70;58.20
67870;DHT22;54673;52.262;6.830;2023-02-21T04:31:59;15.70;58.20
67870;DHT22;54673;52.262;6.830;2023-02-21T04:34:24;15.70;58.20
67870;DHT22;54673;52.262;6.830;2023-02-21T04:36:50;15.70;58.20
67870;DHT22;54673;52.262;6.830;2023-02-21T04:39:16;15.70;58.20
67870;DHT22;54673;52.262;6.830;2023-02-21T04:41:41;15.70;58.20
67870;DHT22;54673;52.262;6.830;2023-02-21T04:44:07;15.70;58.20
67870;DHT22;54673;52.262;6.830;2023-02-21T04:46:33;15.70;58.20
67870;DHT22;54673;52.262;6.830;2023-02-21T04:48:58;15.70;58.20
67870;DHT22;54673;52.262;6.830;2023-02-21T04:51:25;15.70;58.30
67870;DHT22;54673;52.262;6.830;2023-02-21T04:53:52;15.70;58.30
67870;DHT22;54673;52.262;6.830;2023-02-21T04:56:21;15.70;58.30
67870;DHT22;54673;52.262;6.830;2023-02-21T04:58:47;15.70;58.20
67870;DHT22;54673;52.262;6.830;2023-02-21T05:01:14;15.70;58.20
67870;DHT22;54673;52.262;6.830;2023-02-21T05:03:40;15.70;58.20
67870;DHT22;54673;52.262;6.830;2023-02-21T05:06:06;15.70;58.20
67870;DHT22;54673;52.262;6.830;2023-02-21T05:08:32;15.70;58.20
67870;DHT22;54673;52.262;6.830;2023-02-21T05:10:57;15.70;58.30
67870;DHT22;54673;52.262;6.830;2023-02-21T05:13:23;15.70;58.30
67870;DHT22;54673;52.262;6.830;2023-02-21T05:15:49;15.70;58.20
67870;DHT22;54673;52.262;6.830;2023-02-21T05:18:15;15.70;58.30
67870;DHT22;54673;52.262;6.830;2023-02-21T05:20:47;15.70;58.30
67870;DHT22;54673;52.262;6.830;2023-02-21T05:23:13;15.70;58.30
67870;DHT22;54673;52.262;6.830;2023-02-21T05:25:41;15.70;58.30
67870;DHT22;54673;52.262;6.830;2023-02-21T05:28:07;15.60;58.20
67870;DHT22;54673;52.262;6.830;2023-02-21T05:30:33;15.70;58.30
67870;DHT22;54673;52.262;6.830;2023-02-21T05:32:58;15.60;58.30
67870;DHT22;54673;52.262;6.830;2023-02-21T05:35:25;15.70;58.30
67870;DHT22;54673;52.262;6.830;2023-02-21T05:37:50;15.70;58.40
67870;DHT22;54673;52.262;6.830;2023-02-21T05:40:16;15.70;58.40
67870;DHT22;54673;52.262;6.830;2023-02-21T05:42:42;15.70;58.40
67870;DHT22;54673;52.262;6.830;2023-02-21T05:45:08;15.60;58.30
67870;DHT22;54673;52.262;6.830;2023-02-21T05:47:34;15.70;58.40
67870;DHT22;54673;52.262;6.830;2023-02-21T05:50:00;15.70;58.40
67870;DHT22;54673;52.262;6.830;2023-02-21T05:52:26;15.70;58.40
67870;DHT22;54673;52.262;6.830;2023-02-21T05:54:52;15.70;58.40
67870;DHT22;54673;52.262;6.830;2023-02-21T05:57:18;15.70;58.40
67870;DHT22;54673;52.262;6.830;2023-02-21T05:59:44;15.70;58.40
67870;DHT22;54673;52.262;6.830;2023-02-21T06:02:13;15.70;58.50
67870;DHT22;54673;52.262;6.830;2023-02-21T06:04:38;15.70;58.50
67870;DHT22;54673;52.262;6.830;2023-02-21T06:07:04;15.60;58.40
67870;DHT22;54673;52.262;6.830;2023-02-21T06:09:29;15.60;58.40
67870;DHT22;54673;52.262;6.830;2023-02-21T06:11:55;15.60;58.40
67870;DHT22;54673;52.262;6.830;2023-02-21T06:14:21;15.60;58.30
67870;DHT22;54673;52.262;6.830;2023-02-21T06:16:47;15.70;58.40
67870;DHT22;54673;52.262;6.830;2023-02-21T06:19:14;15.60;58.40
67870;DHT22;54673;52.262;6.830;2023-02-21T06:21:41;15.60;58.40
67870;DHT22;54673;52.262;6.830;2023-02-21T06:24:08;15.60;58.50
67870;DHT22;54673;52.262;6.830;2023-02-21T06:26:33;15.60;58.50
67870;DHT22;54673;52.262;6.830;2023-02-21T06:28:59;15.60;58.50
67870;DHT22;54673;52.262;6.830;2023-02-21T06:31:25;16.00;58.60
67870;DHT22;54673;52.262;6.830;2023-02-21T06:33:51;15.60;58.40
67870;DHT22;54673;52.262;6.830;2023-02-21T06:36:21;15.60;58.50
67870;DHT22;54673;52.262;6.830;2023-02-21T06:38:51;15.60;58.50
67870;DHT22;54673;52.262;6.830;2023-02-21T06:41:23;15.60;58.50
67870;DHT22;54673;52.262;6.830;2023-02-21T06:43:49;15.60;58.50
67870;DHT22;54673;52.262;6.830;2023-02-21T06:46:16;15.60;58.50
67870;DHT22;54673;52.262;6.830;2023-02-21T06:48:42;15.60;58.50
67870;DHT22;54673;52.262;6.830;2023-02-21T06:51:07;15.60;58.50
67870;DHT22;54673;52.262;6.830;2023-02-21T06:53:36;15.60;58.60
67870;DHT22;54673;52.262;6.830;2023-02-21T06:56:02;15.60;58.60
67870;DHT22;54673;52.262;6.830;2023-02-21T06:58:28;15.60;58.50
67870;DHT22;54673;52.262;6.830;2023-02-21T07:00:53;15.60;58.60
67870;DHT22;54673;52.262;6.830;2023-02-21T07:03:19;15.60;58.60
67870;DHT22;54673;52.262;6.830;2023-02-21T07:05:45;15.60;58.50
67870;DHT22;54673;52.262;6.830;2023-02-21T07:08:10;15.60;58.60
67870;DHT22;54673;52.262;6.830;2023-02-21T07:10:36;15.60;58.50
67870;DHT22;54673;52.262;6.830;2023-02-21T07:13:02;15.60;58.70
67870;DHT22;54673;52.262;6.830;2023-02-21T07:15:27;15.60;58.80
67870;DHT22;54673;52.262;6.830;2023-02-21T07:17:53;15.50;58.70
67870;DHT22;54673;52.262;6.830;2023-02-21T07:20:19;15.60;58.80
67870;DHT22;54673;52.262;6.830;2023-02-21T07:22:44;15.60;58.70
67870;DHT22;54673;52.262;6.830;2023-02-21T07:25:15;15.60;58.70
67870;DHT22;54673;52.262;6.830;2023-02-21T07:27:41;15.60;58.60
67870;DHT22;54673;52.262;6.830;2023-02-21T07:30:09;15.60;58.60
67870;DHT22;54673;52.262;6.830;2023-02-21T07:32:34;15.60;58.60
67870;DHT22;54673;52.262;6.830;2023-02-21T07:35:00;15.60;59.00
67870;DHT22;54673;52.262;6.830;2023-02-21T07:37:25;15.60;58.50
67870;DHT22;54673;52.262;6.830;2023-02-21T07:39:52;15.60;58.50
67870;DHT22;54673;52.262;6.830;2023-02-21T07:42:17;15.50;58.40
67870;DHT22;54673;52.262;6.830;2023-02-21T07:44:43;15.60;58.40
67870;DHT22;54673;52.262;6.830;2023-02-21T07:47:09;15.60;58.40
67870;DHT22;54673;52.262;6.830;2023-02-21T07:49:38;15.60;58.40
67870;DHT22;54673;52.262;6.830;2023-02-21T07:52:05;15.60;58.40
67870;DHT22;54673;52.262;6.830;2023-02-21T07:54:31;15.50;58.40
67870;DHT22;54673;52.262;6.830;2023-02-21T07:56:56;15.50;58.40
67870;DHT22;54673;52.262;6.830;2023-02-21T07:59:22;16.60;59.10
67870;DHT22;54673;52.262;6.830;2023-02-21T08:01:48;15.60;58.60
67870;DHT22;54673;52.262;6.830;2023-02-21T08:04:13;15.60;58.60
67870;DHT22;54673;52.262;6.830;2023-02-21T08:06:39;15.50;58.60
67870;DHT22;54673;52.262;6.830;2023-02-21T08:09:05;15.50;58.60
67870;DHT22;54673;52.262;6.830;2023-02-21T08:11:31;15.50;58.70
67870;DHT22;54673;52.262;6.830;2023-02-21T08:13:58;15.60;58.70
67870;DHT22;54673;52.262;6.830;2023-02-21T08:16:24;15.60;58.70
67870;DHT22;54673;52.262;6.830;2023-02-21T08:18:50;15.60;58.70
67870;DHT22;54673;52.262;6.830;2023-02-21T08:21:15;15.60;58.70
67870;DHT22;54673;52.262;6.830;2023-02-21T08:23:41;15.60;58.60
67870;DHT22;54673;52.262;6.830;2023-02-21T08:26:07;15.60;58.50
67870;DHT22;54673;52.262;6.830;2023-02-21T08:28:32;15.50;58.60
67870;DHT22;54673;52.262;6.830;2023-02-21T08:30:58;15.50;58.70
67870;DHT22;54673;52.262;6.830;2023-02-21T08:33:24;15.60;58.80
67870;DHT22;54673;52.262;6.830;2023-02-21T08:35:49;15.60;58.80
67870;DHT22;54673;52.262;6.830;2023-02-21T08:38:17;15.60;58.80
67870;DHT22;54673;52.262;6.830;2023-02-21T08:40:43;15.60;58.70
67870;DHT22;54673;52.262;6.830;2023-02-21T08:43:09;15.60;58.70
67870;DHT22;54673;52.262;6.830;2023-02-21T08:45:35;15.50;58.60
67870;DHT22;54673;52.262;6.830;2023-02-21T08:48:00;15.60;58.70
67870;DHT22;54673;52.262;6.830;2023-02-21T08:50:27;15.60;58.70
67870;DHT22;54673;52.262;6.830;2023-02-21T08:52:54;15.60;58.70
67870;DHT22;54673;52.262;6.830;2023-02-21T08:55:19;15.60;58.90
67870;DHT22;54673;52.262;6.830;2023-02-21T08:57:51;15.60;59.00
67870;DHT22;54673;52.262;6.830;2023-02-21T09:00:18;15.60;59.30
67870;DHT22;54673;52.262;6.830;2023-02-21T09:02:44;15.60;59.50
67870;DHT22;54673;52.262;6.830;2023-02-21T09:05:18;15.60;59.50
67870;DHT22;54673;52.262;6.830;2023-02-21T09:07:47;15.60;59.50
67870;DHT22;54673;52.262;6.830;2023-02-21T09:10:13;15.60;60.50
67870;DHT22;54673;52.262;6.830;2023-02-21T09:12:40;15.60;59.80
67870;DHT22;54673;52.262;6.830;2023-02-21T09:15:06;15.60;59.70
67870;DHT22;54673;52.262;6.830;2023-02-21T09:17:32;15.60;59.80
67870;DHT22;54673;52.262;6.830;2023-02-21T09:20:08;15.60;59.80
67870;DHT22;54673;52.262;6.830;2023-02-21T09:22:34;15.60;59.80
67870;DHT22;54673;52.262;6.830;2023-02-21T09:25:00;15.60;59.80
67870;DHT22;54673;52.262;6.830;2023-02-21T09:27:26;16.70;60.40
67870;DHT22;54673;52.262;6.830;2023-02-21T09:30:05;15.60;59.80
67870;DHT22;54673;52.262;6.830;2023-02-21T09:32:31;15.60;59.90
67870;DHT22;54673;52.262;6.830;2023-02-21T09:34:57;15.60;59.90
67870;DHT22;54673;52.262;6.830;2023-02-21T09:37:22;15.60;59.90
67870;DHT22;54673;52.262;6.830;2023-02-21T09:39:48;15.60;59.90
67870;DHT22;54673;52.262;6.830;2023-02-21T09:42:16;15.60;59.90
67870;DHT22;54673;52.262;6.830;2023-02-21T09:44:43;15.60;59.90
67870;DHT22;54673;52.262;6.830;2023-02-21T09:47:14;15.60;59.90
67870;DHT22;54673;52.262;6.830;2023-02-21T09:49:44;15.70;60.00
67870;DHT22;54673;52.262;6.830;2023-02-21T09:52:19;15.60;60.00
67870;DHT22;54673;52.262;6.830;2023-02-21T09:54:51;15.70;60.10
67870;DHT22;54673;52.262;6.830;2023-02-21T09:57:18;15.70;60.10
67870;DHT22;54673;52.262;6.830;2023-02-21T09:59:44;15.70;60.20
67870;DHT22;54673;52.262;6.830;2023-02-21T10:10:08;15.70;60.20
67870;DHT22;54673;52.262;6.830;2023-02-21T10:15:44;15.70;60.10
67870;DHT22;54673;52.262;6.830;2023-02-21T10:21:29;15.80;60.30
67870;DHT22;54673;52.262;6.830;2023-02-21T10:23:55;15.80;61.40
67870;DHT22;54673;52.262;6.830;2023-02-21T10:26:30;15.80;60.90
67870;DHT22;54673;52.262;6.830;2023-02-21T10:28:57;15.80;60.80
67870;DHT22;54673;52.262;6.830;2023-02-21T10:31:38;15.80;61.00
67870;DHT22;54673;52.262;6.830;2023-02-21T10:34:08;15.80;61.00
67870;DHT22;54673;52.262;6.830;2023-02-21T10:36:40;15.80;60.80
67870;DHT22;54673;52.262;6.830;2023-02-21T10:39:29;15.90;60.40
67870;DHT22;54673;52.262;6.830;2023-02-21T10:41:57;15.90;60.20
67870;DHT22;54673;52.262;6.830;2023-02-21T10:44:28;15.80;60.00
67870;DHT22;54673;52.262;6.830;2023-02-21T10:47:37;15.80;60.10
67870;DHT22;54673;52.262;6.830;2023-02-21T10:50:06;15.80;60.20
67870;DHT22;54673;52.262;6.830;2023-02-21T10:52:36;15.80;60.00
67870;DHT22;54673;52.262;6.830;2023-02-21T10:55:15;15.80;60.10
67870;DHT22;54673;52.262;6.830;2023-02-21T10:57:43;15.80;60.00
67870;DHT22;54673;52.262;6.830;2023-02-21T11:00:25;15.80;60.00
67870;DHT22;54673;52.262;6.830;2023-02-21T11:03:01;15.80;59.90
67870;DHT22;54673;52.262;6.830;2023-02-21T11:05:27;15.80;59.80
67870;DHT22;54673;52.262;6.830;2023-02-21T11:07:59;15.80;59.80
67870;DHT22;54673;52.262;6.830;2023-02-21T11:10:34;15.80;59.80
67870;DHT22;54673;52.262;6.830;2023-02-21T11:13:16;15.80;59.80
67870;DHT22;54673;52.262;6.830;2023-02-21T11:15:43;15.80;59.80
67870;DHT22;54673;52.262;6.830;2023-02-21T11:18:23;15.80;59.80
67870;DHT22;54673;52.262;6.830;2023-02-21T11:20:49;15.80;59.80
67870;DHT22;54673;52.262;6.830;2023-02-21T11:23:24;15.80;59.80
67870;DHT22;54673;52.262;6.830;2023-02-21T11:25:57;15.80;59.80
67870;DHT22;54673;52.262;6.830;2023-02-21T11:28:24;15.80;59.70
67870;DHT22;54673;52.262;6.830;2023-02-21T11:31:12;15.80;59.70
67870;DHT22;54673;52.262;6.830;2023-02-21T11:33:48;15.80;59.60
67870;DHT22;54673;52.262;6.830;2023-02-21T11:36:17;15.80;59.70
67870;DHT22;54673;52.262;6.830;2023-02-21T11:38:58;15.80;59.70
67870;DHT22;54673;52.262;6.830;2023-02-21T11:41:36;15.80;59.60
67870;DHT22;54673;52.262;6.830;2023-02-21T11:44:17;15.80;59.60
67870;DHT22;54673;52.262;6.830;2023-02-21T11:46:46;15.80;59.60
67870;DHT22;54673;52.262;6.830;2023-02-21T11:52:16;15.80;59.60
67870;DHT22;54673;52.262;6.830;2023-02-21T11:54:44;15.80;59.50
67870;DHT22;54673;52.262;6.830;2023-02-21T11:57:25;15.80;59.50
67870;DHT22;54673;52.262;6.830;2023-02-21T12:03:20;15.80;59.60
67870;DHT22;54673;52.262;6.830;2023-02-21T12:05:55;15.80;59.50
67870;DHT22;54673;52.262;6.830;2023-02-21T12:14:34;15.80;59.50
67870;DHT22;54673;52.262;6.830;2023-02-21T12:22:57;15.80;59.40
67870;DHT22;54673;52.262;6.830;2023-02-21T12:25:59;15.80;59.40
67870;DHT22;54673;52.262;6.830;2023-02-21T12:28:38;15.80;59.40
67870;DHT22;54673;52.262;6.830;2023-02-21T12:50:15;15.80;59.40
67870;DHT22;54673;52.262;6.830;2023-02-21T12:52:56;15.80;59.40
67870;DHT22;54673;52.262;6.830;2023-02-21T12:55:34;15.80;59.40
67870;DHT22;54673;52.262;6.830;2023-02-21T13:01:14;15.80;59.40
67870;DHT22;54673;52.262;6.830;2023-02-21T13:06:48;15.80;59.40
67870;DHT22;54673;52.262;6.830;2023-02-21T13:09:30;15.80;59.30
67870;DHT22;54673;52.262;6.830;2023-02-21T13:12:06;15.80;59.30
67870;DHT22;54673;52.262;6.830;2023-02-21T13:15:02;15.80;59.30
67870;DHT22;54673;52.262;6.830;2023-02-21T13:17:28;15.80;59.20
67870;DHT22;54673;52.262;6.830;2023-02-21T13:20:02;15.80;59.10
67870;DHT22;54673;52.262;6.830;2023-02-21T13:28:40;15.80;59.20
67870;DHT22;54673;52.262;6.830;2023-02-21T13:31:24;15.80;59.20
67870;DHT22;54673;52.262;6.830;2023-02-21T13:34:00;15.80;59.20
67870;DHT22;54673;52.262;6.830;2023-02-21T13:39:21;15.80;59.20
67870;DHT22;54673;52.262;6.830;2023-02-21T13:42:06;15.80;59.20
67870;DHT22;54673;52.262;6.830;2023-02-21T13:47:10;15.80;59.20
67870;DHT22;54673;52.262;6.830;2023-02-21T14:08:28;15.80;59.90
67870;DHT22;54673;52.262;6.830;2023-02-21T14:13:38;15.90;60.10
67870;DHT22;54673;52.262;6.830;2023-02-21T14:18:50;15.90;60.20
67870;DHT22;54673;52.262;6.830;2023-02-21T14:24:20;15.90;60.40
67870;DHT22;54673;52.262;6.830;2023-02-21T14:42:59;16.00;60.60
67870;DHT22;54673;52.262;6.830;2023-02-21T15:02:42;16.20;60.70
67870;DHT22;54673;52.262;6.830;2023-02-21T15:05:22;16.20;60.50
67870;DHT22;54673;52.262;6.830;2023-02-21T15:07:56;16.20;60.50
67870;DHT22;54673;52.262;6.830;2023-02-21T15:13:01;16.20;60.70
67870;DHT22;54673;52.262;6.830;2023-02-21T15:15:34;16.20;60.60
67870;DHT22;54673;52.262;6.830;2023-02-21T15:18:12;16.00;60.50
67870;DHT22;54673;52.262;6.830;2023-02-21T15:21:05;16.20;60.70
67870;DHT22;54673;52.262;6.830;2023-02-21T15:23:31;16.20;60.40
67870;DHT22;54673;52.262;6.830;2023-02-21T15:25:59;16.20;60.30
67870;DHT22;54673;52.262;6.830;2023-02-21T15:28:30;16.30;60.40
67870;DHT22;54673;52.262;6.830;2023-02-21T15:31:01;16.30;60.50
67870;DHT22;54673;52.262;6.830;2023-02-21T15:33:33;16.60;60.50
67870;DHT22;54673;52.262;6.830;2023-02-21T15:36:17;16.30;60.30
67870;DHT22;54673;52.262;6.830;2023-02-21T15:39:02;16.30;60.10
67870;DHT22;54673;52.262;6.830;2023-02-21T15:44:08;16.20;59.90
67870;DHT22;54673;52.262;6.830;2023-02-21T15:47:20;16.30;60.20
67870;DHT22;54673;52.262;6.830;2023-02-21T15:50:11;16.30;60.20
67870;DHT22;54673;52.262;6.830;2023-02-21T15:52:39;16.30;60.40
67870;DHT22;54673;52.262;6.830;2023-02-21T15:57:44;16.30;60.30
67870;DHT22;54673;52.262;6.830;2023-02-21T16:00:43;16.30;60.40
67870;DHT22;54673;52.262;6.830;2023-02-21T16:06:08;16.40;60.60
67870;DHT22;54673;52.262;6.830;2023-02-21T16:08:35;16.40;60.70
67870;DHT22;54673;52.262;6.830;2023-02-21T16:11:03;16.40;60.70
67870;DHT22;54673;52.262;6.830;2023-02-21T16:13:38;16.40;60.90
67870;DHT22;54673;52.262;6.830;2023-02-21T16:16:05;16.40;60.70
67870;DHT22;54673;52.262;6.830;2023-02-21T16:18:31;16.40;60.70
67870;DHT22;54673;52.262;6.830;2023-02-21T16:21:00;17.20;61.30
67870;DHT22;54673;52.262;6.830;2023-02-21T16:23:39;16.40;61.00
67870;DHT22;54673;52.262;6.830;2023-02-21T16:28:34;16.40;60.90
67870;DHT22;54673;52.262;6.830;2023-02-21T16:31:02;16.90;61.10
67870;DHT22;54673;52.262;6.830;2023-02-21T16:33:29;16.50;60.90
67870;DHT22;54673;52.262;6.830;2023-02-21T16:35:55;16.50;60.70
67870;DHT22;54673;52.262;6.830;2023-02-21T16:38:23;16.50;60.80
67870;DHT22;54673;52.262;6.830;2023-02-21T16:40:49;16.50;60.80
67870;DHT22;54673;52.262;6.830;2023-02-21T16:43:18;16.50;61.00
67870;DHT22;54673;52.262;6.830;2023-02-21T16:45:44;16.50;61.00
67870;DHT22;54673;52.262;6.830;2023-02-21T16:48:16;16.50;61.00
67870;DHT22;54673;52.262;6.830;2023-02-21T16:50:44;16.60;59.90
67870;DHT22;54673;52.262;6.830;2023-02-21T16:53:11;16.60;59.20
67870;DHT22;54673;52.262;6.830;2023-02-21T16:55:40;16.60;58.90
67870;DHT22;54673;52.262;6.830;2023-02-21T16:58:28;16.60;59.20
67870;DHT22;54673;52.262;6.830;2023-02-21T17:01:00;16.50;59.20
67870;DHT22;54673;52.262;6.830;2023-02-21T17:03:26;16.50;59.40
67870;DHT22;54673;52.262;6.830;2023-02-21T17:05:56;16.50;59.70
67870;DHT22;54673;52.262;6.830;2023-02-21T17:08:22;16.50;59.70
67870;DHT22;54673;52.262;6.830;2023-02-21T17:10:50;16.50;59.90
67870;DHT22;54673;52.262;6.830;2023-02-21T17:13:15;16.50;60.00
67870;DHT22;54673;52.262;6.830;2023-02-21T17:15:41;16.60;60.10
67870;DHT22;54673;52.262;6.830;2023-02-21T17:18:06;16.40;60.20
67870;DHT22;54673;52.262;6.830;2023-02-21T17:20:32;16.40;60.40
67870;DHT22;54673;52.262;6.830;2023-02-21T17:22:58;16.40;60.40
67870;DHT22;54673;52.262;6.830;2023-02-21T17:25:24;16.40;61.00
67870;DHT22;54673;52.262;6.830;2023-02-21T17:27:51;16.40;60.60
67870;DHT22;54673;52.262;6.830;2023-02-21T17:30:19;16.40;60.40
67870;DHT22;54673;52.262;6.830;2023-02-21T17:32:45;16.40;60.60
67870;DHT22;54673;52.262;6.830;2023-02-21T17:35:15;16.40;60.70
67870;DHT22;54673;52.262;6.830;2023-02-21T17:37:42;16.40;60.80
67870;DHT22;54673;52.262;6.830;2023-02-21T17:40:09;16.40;60.90
67870;DHT22;54673;52.262;6.830;2023-02-21T17:42:35;16.40;61.00
67870;DHT22;54673;52.262;6.830;2023-02-21T17:45:00;16.40;60.90
67870;DHT22;54673;52.262;6.830;2023-02-21T17:47:26;16.40;60.90
67870;DHT22;54673;52.262;6.830;2023-02-21T17:49:52;16.40;61.00
67870;DHT22;54673;52.262;6.830;2023-02-21T17:52:20;16.30;61.10
67870;DHT22;54673;52.262;6.830;2023-02-21T17:54:45;16.40;61.20
67870;DHT22;54673;52.262;6.830;2023-02-21T17:57:12;16.40;61.30
67870;DHT22;54673;52.262;6.830;2023-02-21T17:59:38;16.40;61.30
67870;DHT22;54673;52.262;6.830;2023-02-21T18:02:05;16.30;61.30
67870;DHT22;54673;52.262;6.830;2023-02-21T18:04:32;16.30;61.30
67870;DHT22;54673;52.262;6.830;2023-02-21T18:06:58;16.30;61.30
67870;DHT22;54673;52.262;6.830;2023-02-21T18:09:24;16.40;61.30
67870;DHT22;54673;52.262;6.830;2023-02-21T18:11:51;16.40;61.30
67870;DHT22;54673;52.262;6.830;2023-02-21T18:14:17;16.30;61.20
67870;DHT22;54673;52.262;6.830;2023-02-21T18:16:43;16.40;61.20
67870;DHT22;54673;52.262;6.830;2023-02-21T18:19:09;16.40;61.30
67870;DHT22;54673;52.262;6.830;2023-02-21T18:21:35;16.40;61.70
67870;DHT22;54673;52.262;6.830;2023-02-21T18:24:09;16.40;62.00
67870;DHT22;54673;52.262;6.830;2023-02-21T18:26:35;16.40;62.00
67870;DHT22;54673;52.262;6.830;2023-02-21T18:29:01;16.50;62.20
67870;DHT22;54673;52.262;6.830;2023-02-21T18:31:27;16.40;62.10
67870;DHT22;54673;52.262;6.830;2023-02-21T18:33:52;16.40;62.00
67870;DHT22;54673;52.262;6.830;2023-02-21T18:36:18;16.40;62.00
67870;DHT22;54673;52.262;6.830;2023-02-21T18:38:44;16.40;62.20
67870;DHT22;54673;52.262;6.830;2023-02-21T18:41:15;16.50;62.20
67870;DHT22;54673;52.262;6.830;2023-02-21T18:43:40;16.50;62.10
67870;DHT22;54673;52.262;6.830;2023-02-21T18:46:12;16.50;63.00
67870;DHT22;54673;52.262;6.830;2023-02-21T18:48:44;16.50;62.00
67870;DHT22;54673;52.262;6.830;2023-02-21T18:51:11;16.50;62.00
67870;DHT22;54673;52.262;6.830;2023-02-21T18:53:38;16.60;62.00
67870;DHT22;54673;52.262;6.830;2023-02-21T18:56:11;16.60;62.00
67870;DHT22;54673;52.262;6.830;2023-02-21T18:58:37;16.60;61.80
67870;DHT22;54673;52.262;6.830;2023-02-21T19:01:04;16.50;62.00
67870;DHT22;54673;52.262;6.830;2023-02-21T19:03:30;16.60;61.90